Time;durP1;ratioP1;P1;durP2;ratioP2;P2;SDS_P1;SDS_P2;PMS_P1;PMS_P2;Temp;Humidity;BMP_temperature;BMP_pressure;BME280_temperature;BME280_humidity;BME280_pressure;Samples;Min_cycle;Max_cycle;Signal;HPM_P1;HPM_P2
2024/01/01 00:02:23;;;;;;;8.13;3.57;;;;;;;;;;4970399;28;20430;-69
2024/01/01 00:04:49;;;;;;;2.40;1.93;;;;;;;;;;4970863;28;20915;-70
2024/01/01 00:07:15;;;;;;;1.90;1.60;;;;;;;;;;4968863;28;20439;-70
2024/01/01 00:09:41;;;;;;;6.20;1.70;;;;;;;;;;4970071;28;20437;-69
2024/01/01 00:12:08;;;;;;;1.67;1.57;;;;;;;;;;4969717;28;20430;-69
2024/01/01 00:14:34;;;;;;;1.93;1.80;;;;;;;;;;4969727;28;20450;-69
2024/01/01 00:17:01;;;;;;;1.63;1.50;;;;;;;;;;4996426;28;20438;-70
2024/01/01 00:19:27;;;;;;;1.73;1.47;;;;;;;;;;4969616;28;21000;-70
2024/01/01 00:21:53;;;;;;;2.03;1.43;;;;;;;;;;4970053;28;20422;-70
2024/01/01 00:24:19;;;;;;;4.40;1.70;;;;;;;;;;5001696;28;20954;-69
2024/01/01 00:26:45;;;;;;;3.17;1.27;;;;;;;;;;4966982;28;20985;-70
2024/01/01 00:29:11;;;;;;;8.03;1.70;;;;;;;;;;4969690;28;20844;-69
2024/01/01 00:31:39;;;;;;;1.60;1.50;;;;;;;;;;4969132;28;20794;-70
2024/01/01 00:34:05;;;;;;;2.40;1.30;;;;;;;;;;4969158;28;20438;-69
2024/01/01 00:36:31;;;;;;;1.83;1.33;;;;;;;;;;4968794;28;20429;-69
2024/01/01 00:38:57;;;;;;;1.43;0.73;;;;;;;;;;4969232;28;20524;-69
2024/01/01 00:41:23;;;;;;;0.77;0.77;;;;;;;;;;4970217;28;20422;-70
2024/01/01 00:43:49;;;;;;;4.00;1.40;;;;;;;;;;4968551;28;21122;-69
2024/01/01 00:46:15;;;;;;;2.67;1.10;;;;;;;;;;4970194;28;20179;-69
2024/01/01 00:48:41;;;;;;;0.67;0.63;;;;;;;;;;4969703;28;21020;-70
2024/01/01 00:51:07;;;;;;;1.50;1.40;;;;;;;;;;4972544;28;20488;-69
2024/01/01 00:53:33;;;;;;;4.50;1.07;;;;;;;;;;4974045;28;20434;-69
2024/01/01 00:55:59;;;;;;;4.83;1.23;;;;;;;;;;4973630;28;20775;-70
2024/01/01 00:58:25;;;;;;;1.00;1.00;;;;;;;;;;4972154;28;20485;-69
2024/01/01 01:00:51;;;;;;;4.07;1.60;;;;;;;;;;4973009;28;20521;-69
2024/01/01 01:03:17;;;;;;;1.03;1.00;;;;;;;;;;4973968;28;20533;-69
2024/01/01 01:05:43;;;;;;;3.17;1.13;;;;;;;;;;4973405;28;20433;-70
2024/01/01 01:08:09;;;;;;;0.70;0.70;;;;;;;;;;4973843;28;20433;-70
2024/01/01 01:10:35;;;;;;;0.93;0.60;;;;;;;;;;4973421;28;20441;-70
2024/01/01 01:13:01;;;;;;;1.07;0.97;;;;;;;;;;4972960;28;20473;-70
2024/01/01 01:15:28;;;;;;;1.93;1.17;;;;;;;;;;4973269;28;20432;-70
2024/01/01 01:17:55;;;;;;;0.70;0.70;;;;;;;;;;4972956;28;20469;-70
2024/01/01 01:20:21;;;;;;;2.20;0.73;;;;;;;;;;4973039;28;20437;-70
2024/01/01 01:22:47;;;;;;;5.80;0.90;;;;;;;;;;4973597;28;20430;-70
2024/01/01 01:25:13;;;;;;;1.23;0.67;;;;;;;;;;4973690;28;20518;-70
2024/01/01 01:27:41;;;;;;;2.10;0.60;;;;;;;;;;4973263;28;20434;-70
2024/01/01 01:30:07;;;;;;;1.03;0.67;;;;;;;;;;4972356;28;20442;-69
2024/01/01 01:32:34;;;;;;;7.70;1.20;;;;;;;;;;5002810;28;20467;-70
2024/01/01 01:35:00;;;;;;;8.63;1.00;;;;;;;;;;4973509;28;20907;-69
2024/01/01 01:37:26;;;;;;;0.90;0.53;;;;;;;;;;4972895;28;20470;-69
2024/01/01 01:39:52;;;;;;;2.80;1.33;;;;;;;;;;4972114;28;20945;-69
2024/01/01 01:42:18;;;;;;;0.83;0.57;;;;;;;;;;4972586;28;20464;-70
2024/01/01 01:44:44;;;;;;;1.87;1.10;;;;;;;;;;5001889;28;20449;-70
2024/01/01 01:47:10;;;;;;;0.80;0.70;;;;;;;;;;4971167;28;20438;-69
2024/01/01 01:49:36;;;;;;;1.80;0.70;;;;;;;;;;4971668;28;20446;-69
2024/01/01 01:52:03;;;;;;;2.73;0.73;;;;;;;;;;4969966;28;20516;-69
2024/01/01 01:54:30;;;;;;;3.20;0.40;;;;;;;;;;4971130;28;20442;-69
2024/01/01 01:56:56;;;;;;;0.73;0.70;;;;;;;;;;5004383;28;20422;-69
2024/01/01 01:59:23;;;;;;;2.20;0.80;;;;;;;;;;4971415;28;20560;-69
2024/01/01 02:01:50;;;;;;;0.67;0.50;;;;;;;;;;4972286;28;20426;-70
2024/01/01 02:04:16;;;;;;;1.13;0.80;;;;;;;;;;4973072;28;20432;-70
2024/01/01 02:06:42;;;;;;;0.40;0.40;;;;;;;;;;4973127;28;20422;-69
2024/01/01 02:09:08;;;;;;;2.10;0.70;;;;;;;;;;4972024;28;20437;-69
2024/01/01 02:11:34;;;;;;;0.50;0.50;;;;;;;;;;4972494;28;20434;-69
2024/01/01 02:14:13;;;;;;;0.50;0.50;;;;;;;;;;4972594;28;20470;-69
2024/01/01 02:16:39;;;;;;;1.03;0.60;;;;;;;;;;4972555;28;20426;-69
2024/01/01 02:19:26;;;;;;;1.70;0.70;;;;;;;;;;4971255;28;20477;-69
2024/01/01 02:21:52;;;;;;;0.50;0.50;;;;;;;;;;4972509;28;20428;-69
2024/01/01 02:24:18;;;;;;;0.63;0.47;;;;;;;;;;4972419;28;20433;-69
2024/01/01 02:26:45;;;;;;;0.43;0.43;;;;;;;;;;4970537;28;20437;-69
2024/01/01 02:29:12;;;;;;;0.50;0.50;;;;;;;;;;4971887;28;20429;-69
2024/01/01 02:31:38;;;;;;;1.80;0.40;;;;;;;;;;4971999;28;20425;-69
2024/01/01 02:34:04;;;;;;;0.30;0.30;;;;;;;;;;4971846;28;21490;-70
2024/01/01 02:36:35;;;;;;;0.77;0.77;;;;;;;;;;4972483;28;20406;-69
2024/01/01 02:39:01;;;;;;;1.40;0.40;;;;;;;;;;4971730;28;20492;-69
2024/01/01 02:41:27;;;;;;;0.90;0.90;;;;;;;;;;5003073;28;20922;-69
2024/01/01 02:43:53;;;;;;;3.80;0.87;;;;;;;;;;4972211;28;20480;-69
2024/01/01 02:46:19;;;;;;;0.40;0.40;;;;;;;;;;4970506;28;20957;-70
2024/01/01 02:48:45;;;;;;;1.80;0.60;;;;;;;;;;4983225;28;20495;-68
2024/01/01 02:51:11;;;;;;;0.40;0.40;;;;;;;;;;4971697;28;20434;-69
2024/01/01 02:53:37;;;;;;;0.50;0.50;;;;;;;;;;4971720;28;20434;-69
2024/01/01 02:56:03;;;;;;;0.93;0.60;;;;;;;;;;4971689;28;20431;-69
2024/01/01 02:58:29;;;;;;;1.47;0.77;;;;;;;;;;4971037;28;20477;-70
2024/01/01 03:00:55;;;;;;;0.40;0.40;;;;;;;;;;4969809;28;20945;-69
2024/01/01 03:03:21;;;;;;;1.43;0.63;;;;;;;;;;4970518;28;20501;-69
2024/01/01 03:05:47;;;;;;;0.83;0.57;;;;;;;;;;4970880;28;20426;-69
2024/01/01 03:08:13;;;;;;;0.40;0.40;;;;;;;;;;4970350;28;20434;-69
2024/01/01 03:10:39;;;;;;;0.50;0.50;;;;;;;;;;4971256;28;20414;-69
2024/01/01 03:13:04;;;;;;;0.63;0.63;;;;;;;;;;4970330;28;20485;-69
2024/01/01 03:15:30;;;;;;;1.33;0.37;;;;;;;;;;4971333;28;20953;-70
2024/01/01 03:17:56;;;;;;;2.50;0.67;;;;;;;;;;4970789;28;20505;-69
2024/01/01 03:20:25;;;;;;;1.57;0.60;;;;;;;;;;4970330;28;20436;-69
2024/01/01 03:22:51;;;;;;;0.57;0.50;;;;;;;;;;5002692;28;20425;-69
2024/01/01 03:25:17;;;;;;;2.20;0.40;;;;;;;;;;4971022;28;20437;-70
2024/01/01 03:27:43;;;;;;;0.73;0.73;;;;;;;;;;4970789;28;20446;-69
2024/01/01 03:30:10;;;;;;;0.50;0.50;;;;;;;;;;4969951;28;20571;-69
2024/01/01 03:32:36;;;;;;;1.53;0.60;;;;;;;;;;4971362;28;20418;-69
2024/01/01 03:35:02;;;;;;;5.40;0.60;;;;;;;;;;4971300;28;20434;-69
2024/01/01 03:37:28;;;;;;;1.80;0.50;;;;;;;;;;4970352;28;20429;-70
2024/01/01 03:39:54;;;;;;;0.63;0.63;;;;;;;;;;4969466;28;20445;-69
2024/01/01 03:42:20;;;;;;;0.80;0.80;;;;;;;;;;4971046;28;20428;-69
2024/01/01 03:44:46;;;;;;;0.43;0.43;;;;;;;;;;4971327;28;20484;-69
2024/01/01 03:47:12;;;;;;;2.50;0.70;;;;;;;;;;4967372;28;20525;-69
2024/01/01 03:49:40;;;;;;;0.40;0.40;;;;;;;;;;4953265;28;20426;-69
2024/01/01 03:52:06;;;;;;;1.03;0.60;;;;;;;;;;4970614;28;20422;-69
2024/01/01 03:54:32;;;;;;;1.90;0.60;;;;;;;;;;4966738;28;20442;-69
2024/01/01 03:56:58;;;;;;;2.53;0.67;;;;;;;;;;4965051;28;20459;-70
2024/01/01 03:59:24;;;;;;;2.30;0.50;;;;;;;;;;4966954;28;20489;-69
2024/01/01 04:01:50;;;;;;;4.37;0.40;;;;;;;;;;4963551;28;20446;-69
2024/01/01 04:04:16;;;;;;;2.20;0.80;;;;;;;;;;4968895;28;20482;-69
2024/01/01 04:06:42;;;;;;;2.37;0.40;;;;;;;;;;4970942;28;20446;-69
2024/01/01 04:09:08;;;;;;;0.53;0.53;;;;;;;;;;4966003;28;20456;-70
2024/01/01 04:11:34;;;;;;;1.17;1.07;;;;;;;;;;4968243;28;20457;-69
2024/01/01 04:14:01;;;;;;;0.40;0.40;;;;;;;;;;4967372;28;20509;-69
2024/01/01 04:16:28;;;;;;;0.40;0.40;;;;;;;;;;4969189;28;20445;-69
2024/01/01 04:18:54;;;;;;;0.57;0.57;;;;;;;;;;4966950;28;20849;-69
2024/01/01 04:21:20;;;;;;;1.50;0.50;;;;;;;;;;4961725;28;21200;-69
2024/01/01 04:23:46;;;;;;;2.77;0.60;;;;;;;;;;4967952;28;20973;-69
2024/01/01 04:26:13;;;;;;;0.50;0.37;;;;;;;;;;4971446;28;20485;-69
2024/01/01 04:28:39;;;;;;;3.13;0.83;;;;;;;;;;4974345;28;20453;-69
2024/01/01 04:31:05;;;;;;;5.17;0.63;;;;;;;;;;4973475;28;20465;-69
2024/01/01 04:33:31;;;;;;;4.20;0.93;;;;;;;;;;5002675;28;20491;-70
2024/01/01 04:35:57;;;;;;;1.20;0.50;;;;;;;;;;4973615;28;20433;-69
2024/01/01 04:38:23;;;;;;;5.23;1.20;;;;;;;;;;4971991;28;20833;-70
2024/01/01 04:40:49;;;;;;;1.20;0.50;;;;;;;;;;4969961;28;20485;-70
2024/01/01 04:43:15;;;;;;;1.20;1.10;;;;;;;;;;4968770;28;20444;-69
2024/01/01 04:45:41;;;;;;;1.10;0.80;;;;;;;;;;4970249;28;20454;-69
2024/01/01 04:48:08;;;;;;;2.83;0.80;;;;;;;;;;4973430;28;20487;-70
2024/01/01 04:50:34;;;;;;;1.30;0.70;;;;;;;;;;4971895;28;20567;-70
2024/01/01 04:53:00;;;;;;;0.80;0.80;;;;;;;;;;4972088;28;20442;-69
2024/01/01 04:55:26;;;;;;;0.60;0.60;;;;;;;;;;5001805;28;20964;-69
2024/01/01 04:57:52;;;;;;;2.10;0.80;;;;;;;;;;4973557;28;20473;-70
2024/01/01 05:00:18;;;;;;;1.97;0.97;;;;;;;;;;4971717;28;20491;-69
2024/01/01 05:02:44;;;;;;;4.73;0.83;;;;;;;;;;4972429;28;20456;-69
2024/01/01 05:05:10;;;;;;;1.90;0.90;;;;;;;;;;4986711;28;20843;-69
2024/01/01 05:07:39;;;;;;;0.60;0.50;;;;;;;;;;4971882;28;20445;-69
2024/01/01 05:10:05;;;;;;;2.60;0.77;;;;;;;;;;4970346;28;20457;-69
2024/01/01 05:12:31;;;;;;;1.17;0.70;;;;;;;;;;4972251;28;20464;-69
2024/01/01 05:14:57;;;;;;;0.73;0.50;;;;;;;;;;4973495;28;20430;-69
2024/01/01 05:17:24;;;;;;;1.60;0.70;;;;;;;;;;4973014;28;20430;-69
2024/01/01 05:19:50;;;;;;;5.73;1.30;;;;;;;;;;4973308;28;20441;-69
2024/01/01 05:22:16;;;;;;;2.40;0.93;;;;;;;;;;5000802;28;20442;-69
2024/01/01 05:24:42;;;;;;;3.30;0.80;;;;;;;;;;4969305;28;20449;-69
2024/01/01 05:27:09;;;;;;;1.97;0.90;;;;;;;;;;4971185;28;20434;-70
2024/01/01 05:29:35;;;;;;;1.80;0.97;;;;;;;;;;4972294;28;20969;-69
2024/01/01 05:32:01;;;;;;;3.33;1.27;;;;;;;;;;4971774;28;20434;-70
2024/01/01 05:34:27;;;;;;;0.80;0.67;;;;;;;;;;4972370;28;20461;-69
2024/01/01 05:36:53;;;;;;;2.27;0.60;;;;;;;;;;5002187;28;20812;-69
2024/01/01 05:39:19;;;;;;;0.73;0.73;;;;;;;;;;4970238;28;20875;-69
2024/01/01 05:41:45;;;;;;;1.13;1.03;;;;;;;;;;4972820;28;20426;-69
2024/01/01 05:44:11;;;;;;;1.77;0.90;;;;;;;;;;4971529;28;20464;-69
2024/01/01 05:46:37;;;;;;;0.53;0.53;;;;;;;;;;4972797;28;20434;-69
2024/01/01 05:49:03;;;;;;;1.60;1.00;;;;;;;;;;4971321;28;20422;-69
2024/01/01 05:51:29;;;;;;;1.33;0.50;;;;;;;;;;4970799;28;20426;-69
2024/01/01 05:53:57;;;;;;;4.13;0.93;;;;;;;;;;4971223;28;20497;-70
2024/01/01 05:56:24;;;;;;;2.40;0.57;;;;;;;;;;4972654;28;20434;-69
2024/01/01 05:58:50;;;;;;;0.73;0.70;;;;;;;;;;4969543;28;20524;-69
2024/01/01 06:01:16;;;;;;;0.63;0.63;;;;;;;;;;4972211;28;20418;-69
2024/01/01 06:03:42;;;;;;;1.63;0.63;;;;;;;;;;4970348;28;20996;-69
2024/01/01 06:06:12;;;;;;;6.47;1.60;;;;;;;;;;4970825;28;20765;-69
2024/01/01 06:08:38;;;;;;;5.03;0.83;;;;;;;;;;4972497;28;20434;-69
2024/01/01 06:11:04;;;;;;;6.63;0.90;;;;;;;;;;4972476;28;20512;-69
2024/01/01 06:13:30;;;;;;;2.30;0.50;;;;;;;;;;4972200;28;20579;-69
2024/01/01 06:15:56;;;;;;;1.73;0.60;;;;;;;;;;4971136;28;20497;-69
2024/01/01 06:18:25;;;;;;;0.80;0.70;;;;;;;;;;4970129;28;20551;-69
2024/01/01 06:20:51;;;;;;;1.10;0.60;;;;;;;;;;4968859;28;20437;-69
2024/01/01 06:23:17;;;;;;;2.77;0.77;;;;;;;;;;4970687;28;20949;-69
2024/01/01 06:25:43;;;;;;;1.47;1.13;;;;;;;;;;4970491;28;20441;-69
2024/01/01 06:28:09;;;;;;;1.47;0.70;;;;;;;;;;4972173;28;20429;-69
2024/01/01 06:30:35;;;;;;;1.80;0.50;;;;;;;;;;4971563;28;20446;-69
2024/01/01 06:33:04;;;;;;;6.60;1.20;;;;;;;;;;4965977;28;20537;-69
2024/01/01 06:35:30;;;;;;;0.40;0.40;;;;;;;;;;4969535;28;20448;-69
2024/01/01 06:37:59;;;;;;;1.53;0.70;;;;;;;;;;4972033;28;20480;-69
2024/01/01 06:40:26;;;;;;;0.80;0.80;;;;;;;;;;4970195;28;20997;-69
2024/01/01 06:42:52;;;;;;;0.60;0.50;;;;;;;;;;4969790;28;20426;-69
2024/01/01 06:45:18;;;;;;;1.60;0.63;;;;;;;;;;4969441;28;21049;-69
2024/01/01 06:47:44;;;;;;;1.37;0.77;;;;;;;;;;4967333;28;20486;-69
2024/01/01 06:50:10;;;;;;;1.53;0.50;;;;;;;;;;4971464;28;20510;-69
2024/01/01 06:52:36;;;;;;;1.87;0.70;;;;;;;;;;4972054;28;20462;-69
2024/01/01 06:55:02;;;;;;;4.53;0.80;;;;;;;;;;4971849;28;20422;-69
2024/01/01 06:57:28;;;;;;;1.03;0.70;;;;;;;;;;4969413;28;20512;-69
2024/01/01 06:59:54;;;;;;;2.07;0.60;;;;;;;;;;4970574;28;20441;-69
2024/01/01 07:02:20;;;;;;;1.93;0.80;;;;;;;;;;4968364;28;20462;-69
2024/01/01 07:04:46;;;;;;;0.70;0.70;;;;;;;;;;4971751;28;20434;-69
2024/01/01 07:07:12;;;;;;;5.30;0.67;;;;;;;;;;4968948;28;20457;-69
2024/01/01 07:09:38;;;;;;;1.13;0.50;;;;;;;;;;4970933;28;20883;-69
2024/01/01 07:12:18;;;;;;;1.17;0.67;;;;;;;;;;4970148;28;20857;-69
2024/01/01 07:14:44;;;;;;;0.73;0.60;;;;;;;;;;4965223;28;20464;-69
2024/01/01 07:17:10;;;;;;;2.00;0.73;;;;;;;;;;4967244;28;20496;-69
2024/01/01 07:19:36;;;;;;;0.70;0.63;;;;;;;;;;5001095;28;20489;-69
2024/01/01 07:22:02;;;;;;;2.33;0.70;;;;;;;;;;4971061;28;20425;-69
2024/01/01 07:24:29;;;;;;;0.50;0.50;;;;;;;;;;4971642;28;20431;-69
2024/01/01 07:26:55;;;;;;;1.10;0.50;;;;;;;;;;4967809;28;20499;-69
2024/01/01 07:29:21;;;;;;;2.77;0.67;;;;;;;;;;4969560;28;20476;-69
2024/01/01 07:31:47;;;;;;;1.20;0.60;;;;;;;;;;4969035;28;20438;-69
2024/01/01 07:34:15;;;;;;;3.40;0.73;;;;;;;;;;4971415;28;20490;-69
2024/01/01 07:36:42;;;;;;;1.13;0.70;;;;;;;;;;4966883;28;20426;-69
2024/01/01 07:39:08;;;;;;;0.97;0.60;;;;;;;;;;4983214;28;20489;-69
2024/01/01 07:41:34;;;;;;;0.50;0.50;;;;;;;;;;4968707;28;20418;-69
2024/01/01 07:44:00;;;;;;;1.87;0.60;;;;;;;;;;4967545;28;20451;-69
2024/01/01 07:46:26;;;;;;;0.77;0.60;;;;;;;;;;4967490;28;20442;-70
2024/01/01 07:48:52;;;;;;;2.30;0.80;;;;;;;;;;4967113;28;20437;-69
2024/01/01 07:51:18;;;;;;;0.83;0.53;;;;;;;;;;4968055;28;20943;-69
2024/01/01 07:53:44;;;;;;;2.13;0.50;;;;;;;;;;4971152;28;20418;-69
2024/01/01 07:56:10;;;;;;;1.70;0.50;;;;;;;;;;4970289;28;20790;-69
2024/01/01 07:58:37;;;;;;;4.43;1.17;;;;;;;;;;4968565;28;20481;-69
2024/01/01 08:01:03;;;;;;;1.70;0.63;;;;;;;;;;4998045;28;20445;-69
2024/01/01 08:03:29;;;;;;;2.70;0.60;;;;;;;;;;4970722;28;20450;-69
2024/01/01 08:05:55;;;;;;;4.23;0.80;;;;;;;;;;4970888;28;20492;-69
2024/01/01 08:08:20;;;;;;;0.83;0.80;;;;;;;;;;4967225;28;20454;-69
2024/01/01 08:10:46;;;;;;;3.60;0.60;;;;;;;;;;5001791;28;20464;-70
2024/01/01 08:13:12;;;;;;;0.97;0.67;;;;;;;;;;5001925;28;20497;-69
2024/01/01 08:15:38;;;;;;;1.60;0.53;;;;;;;;;;4967570;28;20461;-69
2024/01/01 08:18:05;;;;;;;1.93;0.70;;;;;;;;;;4967980;28;20477;-69
2024/01/01 08:20:30;;;;;;;3.70;0.70;;;;;;;;;;4970275;28;20442;-69
2024/01/01 08:22:56;;;;;;;4.13;0.70;;;;;;;;;;4969873;28;20500;-70
2024/01/01 08:25:22;;;;;;;3.17;0.90;;;;;;;;;;4998399;28;20469;-69
2024/01/01 08:27:49;;;;;;;2.50;0.60;;;;;;;;;;4967560;28;20446;-69
2024/01/01 08:30:16;;;;;;;1.20;0.70;;;;;;;;;;4968119;28;20429;-69
2024/01/01 08:32:42;;;;;;;2.03;0.70;;;;;;;;;;4968319;28;20501;-69
2024/01/01 08:35:08;;;;;;;3.33;1.47;;;;;;;;;;4967553;28;20958;-69
2024/01/01 08:37:34;;;;;;;1.20;0.70;;;;;;;;;;4967786;28;20442;-69
2024/01/01 08:40:00;;;;;;;3.40;0.60;;;;;;;;;;4968100;28;20534;-69
2024/01/01 08:42:26;;;;;;;0.83;0.47;;;;;;;;;;4968445;28;20430;-69
2024/01/01 08:44:53;;;;;;;2.83;0.43;;;;;;;;;;4967897;28;20457;-69
2024/01/01 08:47:19;;;;;;;3.50;0.73;;;;;;;;;;4969625;28;20517;-69
2024/01/01 08:49:45;;;;;;;1.63;0.80;;;;;;;;;;4967883;28;20588;-70
2024/01/01 08:52:11;;;;;;;1.20;0.57;;;;;;;;;;4967762;28;20445;-69
2024/01/01 08:54:37;;;;;;;1.47;0.70;;;;;;;;;;4968276;28;20442;-69
2024/01/01 08:57:03;;;;;;;0.90;0.87;;;;;;;;;;4970209;28;20492;-69
2024/01/01 08:59:29;;;;;;;1.03;0.50;;;;;;;;;;4965978;28;20648;-68
2024/01/01 09:01:55;;;;;;;1.73;1.27;;;;;;;;;;4970280;28;20520;-69
2024/01/01 09:04:21;;;;;;;2.93;1.50;;;;;;;;;;4967094;28;20457;-69
2024/01/01 09:06:47;;;;;;;2.00;1.00;;;;;;;;;;5001759;28;20938;-69
2024/01/01 09:09:13;;;;;;;2.67;1.63;;;;;;;;;;4968007;28;20476;-69
2024/01/01 09:11:39;;;;;;;1.33;0.70;;;;;;;;;;4969418;28;20462;-69
2024/01/01 09:14:05;;;;;;;2.80;1.03;;;;;;;;;;4967501;28;20616;-69
2024/01/01 09:16:31;;;;;;;4.93;0.63;;;;;;;;;;4970597;28;20473;-69
2024/01/01 09:18:59;;;;;;;7.00;1.33;;;;;;;;;;5002707;28;20496;-69
2024/01/01 09:21:26;;;;;;;1.60;1.50;;;;;;;;;;4973621;28;20422;-69
2024/01/01 09:23:52;;;;;;;2.17;1.17;;;;;;;;;;4971071;28;20441;-69
2024/01/01 09:26:18;;;;;;;1.00;0.97;;;;;;;;;;4971642;28;20938;-69
2024/01/01 09:28:44;;;;;;;1.67;1.20;;;;;;;;;;4970775;28;20533;-69
2024/01/01 09:31:10;;;;;;;1.07;0.70;;;;;;;;;;4972037;28;20441;-69
2024/01/01 09:33:38;;;;;;;2.10;0.60;;;;;;;;;;5004587;28;20528;-69
2024/01/01 09:36:04;;;;;;;1.40;1.30;;;;;;;;;;4969842;28;20438;-70
2024/01/01 09:38:30;;;;;;;1.37;1.27;;;;;;;;;;4969482;28;20547;-69
2024/01/01 09:40:57;;;;;;;1.33;0.87;;;;;;;;;;4971023;28;20922;-69
2024/01/01 09:43:23;;;;;;;2.00;0.80;;;;;;;;;;5000620;28;20426;-69
2024/01/01 09:45:49;;;;;;;2.50;0.73;;;;;;;;;;5001664;28;20517;-70
2024/01/01 09:48:15;;;;;;;2.63;0.90;;;;;;;;;;4972951;28;20815;-70
2024/01/01 09:50:43;;;;;;;4.50;0.87;;;;;;;;;;4971459;28;20422;-69
2024/01/01 09:53:09;;;;;;;1.13;0.80;;;;;;;;;;4972065;28;20437;-69
2024/01/01 09:55:35;;;;;;;8.33;1.20;;;;;;;;;;4968068;28;20442;-69
2024/01/01 09:58:00;;;;;;;1.40;0.73;;;;;;;;;;5000775;28;21001;-69
2024/01/01 10:00:27;;;;;;;0.90;0.90;;;;;;;;;;4971952;28;20794;-69
2024/01/01 10:03:06;;;;;;;3.23;0.80;;;;;;;;;;5002538;28;20880;-70
2024/01/01 10:05:32;;;;;;;3.90;1.30;;;;;;;;;;4970174;28;20476;-70
2024/01/01 10:08:07;;;;;;;2.00;0.90;;;;;;;;;;4971902;28;20481;-70
2024/01/01 10:10:33;;;;;;;2.13;0.70;;;;;;;;;;4998148;28;20438;-70
2024/01/01 10:13:09;;;;;;;3.60;1.00;;;;;;;;;;4965324;28;20473;-70
2024/01/01 10:15:36;;;;;;;1.43;1.20;;;;;;;;;;4972307;28;20505;-70
2024/01/01 10:18:13;;;;;;;1.60;1.40;;;;;;;;;;4971397;28;20892;-70
2024/01/01 10:20:39;;;;;;;1.70;0.87;;;;;;;;;;4972027;28;20847;-70
2024/01/01 10:23:26;;;;;;;1.00;0.87;;;;;;;;;;4970783;28;20465;-70
2024/01/01 10:26:04;;;;;;;3.93;1.40;;;;;;;;;;4969154;28;20457;-70
2024/01/01 10:28:31;;;;;;;1.37;0.90;;;;;;;;;;5002686;28;20466;-70
2024/01/01 10:30:59;;;;;;;1.17;1.10;;;;;;;;;;4966488;28;21026;-70
2024/01/01 10:33:26;;;;;;;9.17;2.10;;;;;;;;;;4969247;28;20446;-70
2024/01/01 10:35:53;;;;;;;6.43;1.00;;;;;;;;;;4971439;28;20513;-70
2024/01/01 10:38:19;;;;;;;1.40;1.30;;;;;;;;;;4968299;28;20477;-71
2024/01/01 10:40:46;;;;;;;1.93;1.73;;;;;;;;;;4967905;28;20460;-70
2024/01/01 10:43:13;;;;;;;11.10;6.90;;;;;;;;;;4970605;28;20457;-70
2024/01/01 10:45:39;;;;;;;8.80;6.93;;;;;;;;;;5001676;28;20434;-70
2024/01/01 10:48:06;;;;;;;4.83;3.40;;;;;;;;;;5001190;28;20792;-70
2024/01/01 10:50:33;;;;;;;6.20;2.80;;;;;;;;;;4968802;28;20930;-70
2024/01/01 10:53:00;;;;;;;0.93;0.90;;;;;;;;;;5000905;28;20853;-70
2024/01/01 10:55:44;;;;;;;4.93;4.43;;;;;;;;;;5001349;28;20454;-70
2024/01/01 10:58:13;;;;;;;2.57;2.47;;;;;;;;;;5002628;28;20454;-70
2024/01/01 11:00:45;;;;;;;1.60;0.83;;;;;;;;;;4968503;28;20544;-70
2024/01/01 11:03:14;;;;;;;1.80;1.20;;;;;;;;;;4970415;28;20427;-70
2024/01/01 11:05:41;;;;;;;3.53;1.30;;;;;;;;;;5001661;28;20434;-70
2024/01/01 11:08:07;;;;;;;7.30;1.87;;;;;;;;;;4971509;28;20418;-70
2024/01/01 11:10:37;;;;;;;2.47;2.30;;;;;;;;;;4969950;28;20524;-70
2024/01/01 11:13:03;;;;;;;2.13;2.03;;;;;;;;;;5002457;28;20474;-70
2024/01/01 11:15:42;;;;;;;1.90;1.60;;;;;;;;;;4967926;28;20552;-70
2024/01/01 11:18:20;;;;;;;2.00;1.70;;;;;;;;;;4967387;28;20875;-70
2024/01/01 11:20:47;;;;;;;1.33;1.00;;;;;;;;;;4968596;28;20552;-70
2024/01/01 11:23:33;;;;;;;3.53;2.53;;;;;;;;;;4971383;28;20438;-70
2024/01/01 11:25:59;;;;;;;3.37;2.70;;;;;;;;;;4998220;28;20961;-70
2024/01/01 11:28:39;;;;;;;9.73;6.50;;;;;;;;;;4970519;28;20426;-70
2024/01/01 11:31:05;;;;;;;6.33;2.30;;;;;;;;;;5002120;28;20500;-70
2024/01/01 11:33:31;;;;;;;11.77;6.60;;;;;;;;;;5000707;28;20516;-70
2024/01/01 11:36:06;;;;;;;23.43;11.40;;;;;;;;;;4969393;28;20532;-70
2024/01/01 11:38:33;;;;;;;20.53;10.27;;;;;;;;;;4967567;28;20540;-70
2024/01/01 11:40:59;;;;;;;6.20;3.33;;;;;;;;;;4969895;28;21006;-70
2024/01/01 11:43:25;;;;;;;20.10;9.00;;;;;;;;;;4970927;28;20453;-70
2024/01/01 11:45:54;;;;;;;9.17;4.70;;;;;;;;;;4968518;28;20459;-70
2024/01/01 11:48:20;;;;;;;10.80;5.77;;;;;;;;;;4999010;28;20433;-70
2024/01/01 11:50:48;;;;;;;10.20;7.20;;;;;;;;;;4966789;28;20454;-70
2024/01/01 11:53:18;;;;;;;5.83;4.37;;;;;;;;;;4963290;28;20901;-70
2024/01/01 11:55:44;;;;;;;2.90;2.80;;;;;;;;;;4967527;28;20476;-70
2024/01/01 11:58:10;;;;;;;3.40;2.83;;;;;;;;;;4970236;28;20481;-70
2024/01/01 12:00:36;;;;;;;2.10;1.20;;;;;;;;;;4969544;28;20930;-70
2024/01/01 12:03:03;;;;;;;11.60;3.20;;;;;;;;;;4969977;28;20518;-70
2024/01/01 12:05:28;;;;;;;3.50;3.03;;;;;;;;;;4957521;28;20433;-71
2024/01/01 12:07:54;;;;;;;4.40;4.00;;;;;;;;;;4958070;28;20803;-70
2024/01/01 12:10:23;;;;;;;3.30;2.50;;;;;;;;;;4960270;28;20536;-71
2024/01/01 12:12:58;;;;;;;2.00;1.90;;;;;;;;;;4960881;28;20533;-70
2024/01/01 12:15:29;;;;;;;3.00;2.67;;;;;;;;;;4966907;28;20472;-70
2024/01/01 12:17:55;;;;;;;6.57;2.30;;;;;;;;;;4968132;28;20438;-70
2024/01/01 12:20:22;;;;;;;3.20;2.90;;;;;;;;;;4965679;28;20446;-71
2024/01/01 12:22:48;;;;;;;5.77;2.10;;;;;;;;;;4964841;28;20433;-70
2024/01/01 12:25:15;;;;;;;2.43;2.13;;;;;;;;;;4962023;28;20501;-70
2024/01/01 12:27:41;;;;;;;6.43;2.77;;;;;;;;;;4959322;28;20449;-70
2024/01/01 12:30:07;;;;;;;1.00;0.77;;;;;;;;;;4956980;28;20542;-71
2024/01/01 12:32:34;;;;;;;3.07;2.53;;;;;;;;;;4968814;28;20441;-71
2024/01/01 12:35:00;;;;;;;3.50;1.07;;;;;;;;;;4994090;28;20962;-70
2024/01/01 12:37:27;;;;;;;2.90;1.20;;;;;;;;;;4951590;28;20508;-70
2024/01/01 12:39:52;;;;;;;1.43;1.13;;;;;;;;;;4968347;28;20536;-70
2024/01/01 12:42:19;;;;;;;2.30;1.13;;;;;;;;;;4968655;28;20441;-70
2024/01/01 12:44:44;;;;;;;8.40;1.20;;;;;;;;;;4965936;28;21018;-69
2024/01/01 12:47:10;;;;;;;2.37;0.73;;;;;;;;;;4969934;28;20426;-70
2024/01/01 12:49:37;;;;;;;6.93;0.90;;;;;;;;;;4969635;28;20468;-69
2024/01/01 12:52:03;;;;;;;1.50;1.40;;;;;;;;;;4972766;28;20477;-69
2024/01/01 12:54:29;;;;;;;3.90;1.53;;;;;;;;;;4966906;28;20442;-70
2024/01/01 12:56:55;;;;;;;6.27;2.50;;;;;;;;;;4973656;28;20815;-70
2024/01/01 12:59:21;;;;;;;10.47;6.57;;;;;;;;;;4998588;28;20507;-70
2024/01/01 13:01:47;;;;;;;9.70;4.40;;;;;;;;;;4969764;28;20821;-70
2024/01/01 13:04:13;;;;;;;6.90;3.00;;;;;;;;;;4971328;28;20481;-70
2024/01/01 13:06:39;;;;;;;8.40;4.30;;;;;;;;;;4971224;28;20461;-70
2024/01/01 13:09:06;;;;;;;3.80;2.50;;;;;;;;;;4971917;28;20492;-70
2024/01/01 13:11:33;;;;;;;3.10;2.80;;;;;;;;;;4971178;28;20413;-70
2024/01/01 13:13:59;;;;;;;1.63;1.53;;;;;;;;;;4969738;28;20597;-70
2024/01/01 13:16:25;;;;;;;4.13;3.80;;;;;;;;;;4967364;28;20532;-70
2024/01/01 13:18:51;;;;;;;6.03;3.50;;;;;;;;;;4969227;28;21060;-70
2024/01/01 13:21:17;;;;;;;7.23;3.00;;;;;;;;;;4970608;28;20418;-70
2024/01/01 13:23:43;;;;;;;10.83;6.63;;;;;;;;;;4971409;28;20557;-70
2024/01/01 13:26:09;;;;;;;3.23;2.90;;;;;;;;;;4970679;28;20517;-69
2024/01/01 13:28:35;;;;;;;8.13;1.70;;;;;;;;;;4969064;28;20926;-70
2024/01/01 13:31:02;;;;;;;7.33;3.60;;;;;;;;;;4971755;28;20828;-69
2024/01/01 13:33:28;;;;;;;13.60;9.77;;;;;;;;;;4968705;28;20434;-70
2024/01/01 13:35:54;;;;;;;7.93;3.13;;;;;;;;;;4969522;28;20816;-70
2024/01/01 13:38:20;;;;;;;17.47;8.57;;;;;;;;;;4971306;28;20488;-70
2024/01/01 13:40:46;;;;;;;5.10;3.50;;;;;;;;;;4971023;28;20469;-70
2024/01/01 13:43:13;;;;;;;3.70;2.67;;;;;;;;;;4971631;28;20902;-70
2024/01/01 13:45:40;;;;;;;3.13;2.83;;;;;;;;;;4970797;28;20445;-69
2024/01/01 13:48:10;;;;;;;14.23;3.80;;;;;;;;;;4969777;28;20488;-70
2024/01/01 13:50:36;;;;;;;2.77;2.50;;;;;;;;;;4970405;28;20867;-69
2024/01/01 13:53:05;;;;;;;1.93;1.73;;;;;;;;;;4971817;28;20422;-70
2024/01/01 13:55:34;;;;;;;5.63;1.50;;;;;;;;;;4971505;28;20433;-69
2024/01/01 13:58:02;;;;;;;4.07;1.17;;;;;;;;;;4969645;28;20430;-70
2024/01/01 14:00:29;;;;;;;1.67;1.57;;;;;;;;;;4968272;28;21462;-70
2024/01/01 14:02:55;;;;;;;3.20;0.90;;;;;;;;;;4971134;28;20434;-70
2024/01/01 14:05:21;;;;;;;1.43;1.20;;;;;;;;;;4970296;28;20478;-70
2024/01/01 14:07:48;;;;;;;5.90;1.00;;;;;;;;;;4971202;28;20857;-70
2024/01/01 14:10:19;;;;;;;2.30;1.33;;;;;;;;;;4971153;28;20775;-70
2024/01/01 14:12:45;;;;;;;2.50;1.00;;;;;;;;;;5002406;28;20480;-69
2024/01/01 14:15:11;;;;;;;0.70;0.70;;;;;;;;;;5000561;28;20545;-70
2024/01/01 14:17:37;;;;;;;2.30;0.80;;;;;;;;;;4969282;28;20476;-70
2024/01/01 14:20:04;;;;;;;1.43;1.33;;;;;;;;;;4968170;28;20580;-70
2024/01/01 14:22:30;;;;;;;7.83;1.40;;;;;;;;;;4970096;28;20429;-70
2024/01/01 14:24:56;;;;;;;0.60;0.60;;;;;;;;;;4966183;28;20430;-70
2024/01/01 14:27:22;;;;;;;3.17;1.40;;;;;;;;;;4966761;28;20513;-69
2024/01/01 14:29:49;;;;;;;2.00;1.03;;;;;;;;;;4997410;28;20529;-70
2024/01/01 14:32:15;;;;;;;4.53;0.80;;;;;;;;;;4970393;28;20454;-70
2024/01/01 14:34:41;;;;;;;2.77;1.77;;;;;;;;;;4969735;28;20509;-70
2024/01/01 14:37:07;;;;;;;3.20;1.40;;;;;;;;;;4999419;28;20574;-70
2024/01/01 14:39:35;;;;;;;5.13;1.30;;;;;;;;;;4968776;28;20477;-70
2024/01/01 14:42:01;;;;;;;4.00;1.40;;;;;;;;;;4953692;28;20442;-69